createdAt,value
2018-10-03T00:00:11.032Z,0
2018-10-03T00:01:20.796Z,0
2018-10-03T00:02:30.834Z,0
2018-10-03T00:03:40.324Z,0
2018-10-03T00:04:50.086Z,0
2018-10-03T00:05:59.851Z,0
2018-10-03T00:07:09.623Z,0
2018-10-03T00:08:19.383Z,0
2018-10-03T00:09:29.469Z,0
2018-10-03T00:10:39.284Z,0
2018-10-03T00:11:48.728Z,0
2018-10-03T00:12:58.490Z,0
2018-10-03T00:14:08.519Z,0
2018-10-03T00:15:18.599Z,0
2018-10-03T00:16:28.361Z,0
2018-10-03T00:17:38.122Z,0
2018-10-03T00:18:47.897Z,0
2018-10-03T00:19:57.657Z,0
2018-10-03T00:21:07.477Z,0
2018-10-03T00:22:17.513Z,0
2018-10-03T00:23:27.752Z,0
2018-10-03T00:24:37.754Z,0
2018-10-03T00:25:47.796Z,0
2018-10-03T00:26:57.822Z,0
2018-10-03T00:28:07.894Z,0
2018-10-03T00:29:17.121Z,0
2018-10-03T00:30:26.882Z,0
2018-10-03T00:31:36.642Z,0
2018-10-03T00:32:46.677Z,0
2018-10-03T00:33:56.706Z,0
2018-10-03T00:35:06.197Z,0
2018-10-03T00:36:16.242Z,0
2018-10-03T00:37:26.000Z,0
2018-10-03T00:38:36.077Z,0
2018-10-03T00:39:46.113Z,0
2018-10-03T00:40:56.149Z,0
2018-10-03T00:42:05.921Z,0
2018-10-03T00:43:15.415Z,0
2018-10-03T00:44:25.444Z,0
2018-10-03T00:45:35.206Z,0
2018-10-03T00:46:45.234Z,0
2018-10-03T00:47:55.263Z,0
2018-10-03T00:49:05.024Z,0
2018-10-03T00:50:14.520Z,0
2018-10-03T00:51:24.275Z,0
2018-10-03T00:52:33.499Z,0
2018-10-03T00:53:43.540Z,0
2018-10-03T00:54:53.297Z,0
2018-10-03T00:56:03.376Z,0
2018-10-03T00:57:13.138Z,0
2018-10-03T00:58:22.631Z,0
2018-10-03T00:59:32.662Z,0
2018-10-03T01:00:42.424Z,0
2018-10-03T01:01:52.452Z,0
2018-10-03T01:03:02.215Z,0
2018-10-03T01:04:12.251Z,0
2018-10-03T01:05:22.278Z,0
2018-10-03T01:06:32.306Z,0
2018-10-03T01:07:44.072Z,0
2018-10-03T01:08:54.100Z,0
2018-10-03T01:10:03.327Z,0
2018-10-03T01:11:13.370Z,0
2018-10-03T01:12:22.858Z,0
2018-10-03T01:13:32.616Z,0
2018-10-03T01:14:42.655Z,0
2018-10-03T01:15:52.716Z,0
2018-10-03T01:17:02.499Z,0
2018-10-03T01:18:12.538Z,0
2018-10-03T01:19:21.815Z,0
2018-10-03T01:20:31.576Z,0
2018-10-03T01:21:41.613Z,0
2018-10-03T01:22:51.649Z,0
2018-10-03T01:24:01.681Z,0
2018-10-03T01:25:11.472Z,0
2018-10-03T01:26:21.511Z,0
2018-10-03T01:27:31.277Z,0
2018-10-03T01:28:41.309Z,0
2018-10-03T01:29:51.338Z,0
2018-10-03T01:31:01.370Z,0
2018-10-03T01:32:11.406Z,0
2018-10-03T01:33:20.892Z,0
2018-10-03T01:34:30.672Z,0
2018-10-03T01:35:40.166Z,0
2018-10-03T01:36:49.396Z,0
2018-10-03T01:37:59.146Z,0
2018-10-03T01:39:08.923Z,0
2018-10-03T01:40:18.965Z,0
2018-10-03T01:41:28.724Z,0
2018-10-03T01:42:38.495Z,0
2018-10-03T01:43:48.260Z,0
2018-10-03T01:44:58.062Z,0
2018-10-03T01:46:07.830Z,0
2018-10-03T01:47:17.868Z,0
2018-10-03T01:48:27.627Z,0
2018-10-03T01:49:37.390Z,0
2018-10-03T01:50:47.145Z,0
2018-10-03T01:51:56.634Z,0
2018-10-03T01:53:06.399Z,0
2018-10-03T01:54:16.162Z,0
2018-10-03T01:55:26.204Z,0
2018-10-03T01:56:36.232Z,0
2018-10-03T01:57:46.323Z,0
2018-10-03T01:58:56.357Z,0
2018-10-03T02:00:06.139Z,0
2018-10-03T02:01:15.910Z,0
2018-10-03T02:02:25.404Z,0
2018-10-03T02:03:35.425Z,0
2018-10-03T02:04:45.455Z,0
2018-10-03T02:05:55.479Z,0
2018-10-03T02:07:04.703Z,0
2018-10-03T02:08:14.726Z,0
2018-10-03T02:09:24.500Z,0
2018-10-03T02:10:33.999Z,0
2018-10-03T02:11:44.030Z,0
2018-10-03T02:12:54.055Z,0
2018-10-03T02:14:03.822Z,0
2018-10-03T02:15:13.587Z,0
2018-10-03T02:16:23.628Z,0
2018-10-03T02:17:33.660Z,0
2018-10-03T02:18:43.692Z,0
2018-10-03T02:19:53.450Z,0
2018-10-03T02:21:03.491Z,0
2018-10-03T02:22:13.522Z,0
2018-10-03T02:23:23.011Z,0
2018-10-03T02:24:32.773Z,0
2018-10-03T02:25:42.800Z,0
2018-10-03T02:26:52.831Z,0
2018-10-03T02:28:02.593Z,0
2018-10-03T02:29:12.363Z,0
2018-10-03T02:30:22.399Z,0
2018-10-03T02:31:32.160Z,0
2018-10-03T02:32:42.199Z,0
2018-10-03T02:33:52.229Z,0
2018-10-03T02:35:02.262Z,0
2018-10-03T02:36:12.028Z,0
2018-10-03T02:37:22.056Z,0
2018-10-03T02:38:31.548Z,0
2018-10-03T02:39:41.598Z,0
2018-10-03T02:40:51.093Z,0
2018-10-03T02:42:01.153Z,0
2018-10-03T02:43:10.647Z,0
2018-10-03T02:44:20.407Z,0
2018-10-03T02:45:30.170Z,0
2018-10-03T02:46:40.204Z,0
2018-10-03T02:47:50.238Z,0
2018-10-03T02:49:00.274Z,0
2018-10-03T02:50:09.775Z,0
2018-10-03T02:51:19.271Z,0
2018-10-03T02:52:29.055Z,0
2018-10-03T02:53:38.826Z,0
2018-10-03T02:54:48.333Z,0
2018-10-03T02:55:58.367Z,0
2018-10-03T02:57:08.141Z,0
2018-10-03T02:58:18.172Z,0
2018-10-03T02:59:28.205Z,0
2018-10-03T03:00:37.698Z,0
2018-10-03T03:01:47.881Z,0
2018-10-03T03:02:58.253Z,0
2018-10-03T03:04:08.326Z,0
2018-10-03T03:05:18.363Z,0
2018-10-03T03:06:28.424Z,0
2018-10-03T03:07:38.189Z,0
2018-10-03T03:08:48.537Z,0
2018-10-03T03:09:58.841Z,0
2018-10-03T03:11:08.886Z,0
2018-10-03T03:12:18.918Z,0
2018-10-03T03:13:28.686Z,0
2018-10-03T03:14:38.454Z,0
2018-10-03T03:15:48.483Z,0
2018-10-03T03:16:58.509Z,0
2018-10-03T03:18:08.275Z,0
2018-10-03T03:19:18.035Z,0
2018-10-03T03:20:27.549Z,0
2018-10-03T03:21:37.333Z,0
2018-10-03T03:22:47.364Z,0
2018-10-03T03:23:56.587Z,0
2018-10-03T03:25:06.634Z,0
2018-10-03T03:26:16.665Z,0
2018-10-03T03:27:26.694Z,0
2018-10-03T03:28:36.748Z,0
2018-10-03T03:29:46.528Z,0
2018-10-03T03:30:56.559Z,0
2018-10-03T03:32:06.610Z,0
2018-10-03T03:33:16.662Z,0
2018-10-03T03:34:26.694Z,0
2018-10-03T03:35:36.744Z,0
2018-10-03T03:36:46.229Z,0
2018-10-03T03:37:56.258Z,0
2018-10-03T03:39:06.032Z,0
2018-10-03T03:40:15.279Z,0
2018-10-03T03:41:25.310Z,0
2018-10-03T03:42:35.069Z,0
2018-10-03T03:43:45.098Z,0
2018-10-03T03:44:54.868Z,0
2018-10-03T03:46:04.385Z,0
2018-10-03T03:47:14.416Z,0
2018-10-03T03:48:24.184Z,0
2018-10-03T03:49:34.224Z,0
2018-10-03T03:50:43.989Z,0
2018-10-03T03:51:53.502Z,0
2018-10-03T03:53:03.538Z,0
2018-10-03T03:54:13.595Z,0
2018-10-03T03:55:23.097Z,0
2018-10-03T03:56:32.853Z,0
2018-10-03T03:57:42.897Z,0
2018-10-03T03:58:52.681Z,0
2018-10-03T04:00:02.504Z,0
2018-10-03T04:01:12.549Z,0
2018-10-03T04:02:22.584Z,0
2018-10-03T04:03:32.351Z,0
2018-10-03T04:04:42.120Z,0
2018-10-03T04:05:51.886Z,0
2018-10-03T04:07:01.662Z,0
2018-10-03T04:08:11.695Z,0
2018-10-03T04:09:21.464Z,0
2018-10-03T04:10:31.520Z,0
2018-10-03T04:11:41.296Z,0
2018-10-03T04:12:51.341Z,0
2018-10-03T04:14:01.103Z,0
2018-10-03T04:15:11.162Z,0
2018-10-03T04:16:20.924Z,0
2018-10-03T04:17:30.970Z,0
2018-10-03T04:18:40.465Z,0
2018-10-03T04:19:50.224Z,0
2018-10-03T04:21:00.254Z,0
2018-10-03T04:22:10.285Z,0
2018-10-03T04:23:20.050Z,0
2018-10-03T04:24:30.080Z,0
2018-10-03T04:25:39.839Z,0
2018-10-03T04:26:49.889Z,0
2018-10-03T04:27:59.650Z,0
2018-10-03T04:29:09.681Z,0
2018-10-03T04:30:19.714Z,0
2018-10-03T04:31:29.796Z,0
2018-10-03T04:32:39.831Z,0
2018-10-03T04:33:49.898Z,0
2018-10-03T04:34:59.934Z,0
2018-10-03T04:36:09.426Z,0
2018-10-03T04:37:19.457Z,0
2018-10-03T04:38:29.218Z,0
2018-10-03T04:39:39.291Z,0
2018-10-03T04:40:49.326Z,0
2018-10-03T04:41:59.090Z,0
2018-10-03T04:43:09.191Z,0
2018-10-03T04:44:19.254Z,0
2018-10-03T04:45:29.030Z,0
2018-10-03T04:46:39.067Z,0
2018-10-03T04:47:49.091Z,0
2018-10-03T04:48:59.120Z,4
2018-10-03T04:50:09.094Z,4
2018-10-03T04:51:19.118Z,4
2018-10-03T04:52:29.146Z,0
2018-10-03T04:53:39.173Z,4
2018-10-03T04:54:48.982Z,4
2018-10-03T04:55:59.008Z,4
2018-10-03T04:57:08.773Z,8
2018-10-03T04:58:18.529Z,8
2018-10-03T04:59:28.297Z,8
2018-10-03T05:00:38.123Z,12
2018-10-03T05:01:47.887Z,12
2018-10-03T05:02:57.910Z,12
2018-10-03T05:04:07.676Z,16
2018-10-03T05:05:17.167Z,16
2018-10-03T05:06:26.975Z,24
2018-10-03T05:07:36.743Z,24
2018-10-03T05:08:46.763Z,32
2018-10-03T05:09:56.800Z,36
2018-10-03T05:11:06.564Z,44
2018-10-03T05:12:16.247Z,48
2018-10-03T05:13:25.741Z,56
2018-10-03T05:14:35.498Z,68
2018-10-03T05:15:45.520Z,76
2018-10-03T05:16:55.272Z,88
2018-10-03T05:18:05.078Z,104
2018-10-03T05:19:14.837Z,116
2018-10-03T05:20:24.603Z,128
2018-10-03T05:21:34.097Z,144
2018-10-03T05:22:43.861Z,160
2018-10-03T05:23:53.945Z,180
2018-10-03T05:25:03.980Z,200
2018-10-03T05:26:13.201Z,224
2018-10-03T05:27:22.688Z,244
2018-10-03T05:28:32.710Z,272
2018-10-03T05:29:42.467Z,296
2018-10-03T05:30:51.958Z,320
2018-10-03T05:32:01.716Z,352
2018-10-03T05:33:11.591Z,384
2018-10-03T05:34:21.698Z,416
2018-10-03T05:35:31.503Z,452
2018-10-03T05:36:41.272Z,484
2018-10-03T05:37:51.290Z,516
2018-10-03T05:39:01.311Z,548
2018-10-03T05:40:11.072Z,584
2018-10-03T05:41:20.607Z,616
2018-10-03T05:42:30.378Z,652
2018-10-03T05:43:40.132Z,680
2018-10-03T05:44:50.156Z,716
2018-10-03T05:46:00.190Z,748
2018-10-03T05:47:10.004Z,788
2018-10-03T05:48:20.225Z,824
2018-10-03T05:49:30.378Z,868
2018-10-03T05:50:40.143Z,912
2018-10-03T05:51:50.168Z,956
2018-10-03T05:53:00.248Z,1000
2018-10-03T05:54:10.272Z,1040
2018-10-03T05:55:20.302Z,1068
2018-10-03T05:56:30.335Z,1100
2018-10-03T05:57:40.092Z,1120
2018-10-03T05:58:49.914Z,1140
2018-10-03T05:59:59.933Z,1156
2018-10-03T06:01:09.427Z,1180
2018-10-03T06:02:19.452Z,1200
2018-10-03T06:03:29.209Z,1228
2018-10-03T06:04:39.291Z,1256
2018-10-03T06:05:49.047Z,1280
2018-10-03T06:06:59.076Z,1304
2018-10-03T06:08:08.833Z,1328
2018-10-03T06:09:18.591Z,1352
2018-10-03T06:10:28.732Z,1376
2018-10-03T06:11:38.751Z,1396
2018-10-03T06:12:48.511Z,1420
2018-10-03T06:13:58.550Z,1440
2018-10-03T06:15:08.582Z,1452
2018-10-03T06:16:18.409Z,1408
2018-10-03T06:17:28.883Z,1392
2018-10-03T06:18:38.895Z,1408
2018-10-03T06:19:49.177Z,1436
2018-10-03T06:20:58.667Z,1460
2018-10-03T06:22:08.748Z,1492
2018-10-03T06:23:18.781Z,1528
2018-10-03T06:24:28.864Z,1580
2018-10-03T06:25:38.892Z,1580
2018-10-03T06:26:48.943Z,1616
2018-10-03T06:27:59.518Z,1644
2018-10-03T06:29:08.908Z,1756
2018-10-03T06:30:18.930Z,1732
2018-10-03T06:31:28.683Z,1752
2018-10-03T06:32:38.432Z,1844
2018-10-03T06:33:47.971Z,1792
2018-10-03T06:34:57.729Z,1788
2018-10-03T06:36:07.225Z,1848
2018-10-03T06:37:16.983Z,1956
2018-10-03T06:38:27.008Z,2048
2018-10-03T06:39:37.207Z,2060
2018-10-03T06:40:46.973Z,2080
2018-10-03T06:41:57.180Z,2096
2018-10-03T06:43:07.482Z,2116
2018-10-03T06:44:17.780Z,2132
2018-10-03T06:45:27.988Z,2156
2018-10-03T06:46:38.092Z,2172
2018-10-03T06:47:47.844Z,2192
2018-10-03T06:48:57.878Z,2208
2018-10-03T06:50:07.917Z,2224
2018-10-03T06:51:17.996Z,2240
2018-10-03T06:52:28.099Z,2260
2018-10-03T06:53:38.116Z,2276
2018-10-03T06:54:47.876Z,2292
2018-10-03T06:55:57.634Z,2308
2018-10-03T06:57:07.374Z,2324
2018-10-03T06:58:17.562Z,2336
2018-10-03T06:59:27.599Z,2356
2018-10-03T07:00:37.361Z,2380
2018-10-03T07:01:47.400Z,2408
2018-10-03T07:02:57.209Z,2428
2018-10-03T07:04:07.246Z,2444
2018-10-03T07:05:17.270Z,2460
2018-10-03T07:06:27.027Z,2476
2018-10-03T07:07:36.789Z,2488
2018-10-03T07:08:46.593Z,2500
2018-10-03T07:09:56.618Z,2504
2018-10-03T07:11:06.657Z,2496
2018-10-03T07:12:16.684Z,2492
2018-10-03T07:13:26.178Z,2500
2018-10-03T07:14:35.935Z,2504
2018-10-03T07:15:46.007Z,2520
2018-10-03T07:16:56.033Z,2528
2018-10-03T07:18:06.069Z,2540
2018-10-03T07:19:16.090Z,2544
2018-10-03T07:20:26.115Z,2552
2018-10-03T07:21:35.881Z,2440
2018-10-03T07:22:45.913Z,2296
2018-10-03T07:23:55.180Z,2268
2018-10-03T07:25:04.951Z,2328
2018-10-03T07:26:15.448Z,2588
2018-10-03T07:27:25.180Z,2620
2018-10-03T07:28:34.944Z,2628
2018-10-03T07:29:44.433Z,2636
2018-10-03T07:30:54.460Z,2644
2018-10-03T07:32:04.280Z,2660
2018-10-03T07:33:13.766Z,2676
2018-10-03T07:34:23.795Z,2680
2018-10-03T07:35:33.548Z,2688
2018-10-03T07:36:43.307Z,2692
2018-10-03T07:37:53.064Z,2696
2018-10-03T07:39:03.088Z,2700
2018-10-03T07:40:12.865Z,2696
2018-10-03T07:41:22.625Z,2696
2018-10-03T07:42:31.850Z,2700
2018-10-03T07:43:41.390Z,2700
2018-10-03T07:44:51.152Z,2696
2018-10-03T07:46:00.644Z,2708
2018-10-03T07:47:10.665Z,2624
2018-10-03T07:48:20.425Z,2556
2018-10-03T07:49:30.515Z,2572
2018-10-03T07:50:40.280Z,2792
2018-10-03T07:51:50.037Z,2788
2018-10-03T07:52:59.529Z,2792
2018-10-03T07:54:09.296Z,2800
2018-10-03T07:55:18.895Z,2804
2018-10-03T07:56:29.081Z,2812
2018-10-03T07:57:39.118Z,2816
2018-10-03T07:58:49.278Z,2824
2018-10-03T07:59:59.349Z,2832
2018-10-03T08:01:08.897Z,2836
2018-10-03T08:02:18.927Z,2840
2018-10-03T08:03:28.952Z,2844
2018-10-03T08:04:38.436Z,2852
2018-10-03T08:05:48.522Z,2852
2018-10-03T08:06:58.281Z,2860
2018-10-03T08:08:08.089Z,2868
2018-10-03T08:09:18.122Z,2872
2018-10-03T08:10:28.148Z,2880
2018-10-03T08:11:38.174Z,2884
2018-10-03T08:12:48.254Z,2888
2018-10-03T08:13:58.298Z,2892
2018-10-03T08:15:07.823Z,2896
2018-10-03T08:16:17.851Z,2900
2018-10-03T08:17:28.241Z,2908
2018-10-03T08:18:38.537Z,2916
2018-10-03T08:19:48.568Z,2920
2018-10-03T08:20:58.324Z,2924
2018-10-03T08:22:08.360Z,2932
2018-10-03T08:23:18.397Z,2936
2018-10-03T08:24:28.152Z,2944
2018-10-03T08:25:38.300Z,2948
2018-10-03T08:26:47.794Z,2956
2018-10-03T08:27:57.559Z,2960
2018-10-03T08:29:07.585Z,2968
2018-10-03T08:30:17.555Z,2976
2018-10-03T08:31:27.600Z,2980
2018-10-03T08:32:38.287Z,2984
2018-10-03T08:33:48.180Z,2996
2018-10-03T08:34:57.950Z,3000
2018-10-03T08:36:07.760Z,3008
2018-10-03T08:37:17.781Z,3016
2018-10-03T08:38:27.598Z,3020
2018-10-03T08:39:37.174Z,3028
2018-10-03T08:40:46.983Z,3032
2018-10-03T08:41:57.071Z,3040
2018-10-03T08:43:06.843Z,3044
2018-10-03T08:44:16.615Z,3052
2018-10-03T08:45:26.148Z,3052
2018-10-03T08:46:35.837Z,3064
2018-10-03T08:47:45.659Z,3064
2018-10-03T08:48:55.149Z,3072
2018-10-03T08:50:04.644Z,3080
2018-10-03T08:51:14.412Z,3084
2018-10-03T08:52:24.177Z,3088
2018-10-03T08:53:34.264Z,3096
2018-10-03T08:54:43.756Z,3100
2018-10-03T08:55:53.258Z,3112
2018-10-03T08:57:03.024Z,3116
2018-10-03T08:58:13.607Z,3124
2018-10-03T08:59:23.401Z,3124
2018-10-03T09:00:33.432Z,3132
2018-10-03T09:01:43.474Z,3136
2018-10-03T09:02:53.243Z,3144
2018-10-03T09:04:02.733Z,3148
2018-10-03T09:05:12.234Z,3152
2018-10-03T09:06:22.263Z,3156
2018-10-03T09:07:32.029Z,3164
2018-10-03T09:08:41.791Z,3168
2018-10-03T09:09:51.556Z,3172
2018-10-03T09:11:01.365Z,3184
2018-10-03T09:12:11.135Z,3192
2018-10-03T09:13:21.218Z,3196
2018-10-03T09:14:30.995Z,3204
2018-10-03T09:15:41.025Z,3212
2018-10-03T09:16:51.164Z,3184
2018-10-03T09:18:00.934Z,3232
2018-10-03T09:19:10.966Z,3232
2018-10-03T09:20:21.004Z,3240
2018-10-03T09:21:31.423Z,3248
2018-10-03T09:22:41.331Z,3260
2018-10-03T09:23:51.097Z,3268
2018-10-03T09:25:01.123Z,3280
2018-10-03T09:26:10.886Z,3288
2018-10-03T09:27:20.925Z,3300
2018-10-03T09:28:31.574Z,3304
2018-10-03T09:29:41.448Z,3312
2018-10-03T09:30:51.264Z,3320
2018-10-03T09:32:01.031Z,3328
2018-10-03T09:33:10.792Z,3340
2018-10-03T09:34:20.872Z,3344
2018-10-03T09:35:30.907Z,3348
2018-10-03T09:36:40.954Z,3356
2018-10-03T09:37:50.726Z,3368
2018-10-03T09:39:00.491Z,3376
2018-10-03T09:40:10.297Z,3384
2018-10-03T09:41:20.068Z,3388
2018-10-03T09:42:29.832Z,3396
2018-10-03T09:43:39.591Z,3404
2018-10-03T09:44:49.638Z,3412
2018-10-03T09:45:59.404Z,3416
2018-10-03T09:47:09.183Z,3432
2018-10-03T09:48:18.682Z,3432
2018-10-03T09:49:27.911Z,3444
2018-10-03T09:50:37.673Z,3448
2018-10-03T09:51:47.765Z,3456
2018-10-03T09:52:57.545Z,3468
2018-10-03T09:54:07.308Z,3476
2018-10-03T09:55:17.069Z,3480
2018-10-03T09:56:26.827Z,3496
2018-10-03T09:57:36.109Z,3504
2018-10-03T09:58:46.145Z,3516
2018-10-03T09:59:56.185Z,3524
2018-10-03T10:01:06.203Z,3532
2018-10-03T10:02:15.981Z,3544
2018-10-03T10:03:25.799Z,3552
2018-10-03T10:04:35.562Z,3556
2018-10-03T10:05:45.322Z,3572
2018-10-03T10:06:55.087Z,3580
2018-10-03T10:08:05.120Z,3596
2018-10-03T10:09:14.880Z,3620
2018-10-03T10:10:24.782Z,3704
2018-10-03T10:11:35.125Z,3752
2018-10-03T10:12:45.828Z,3832
2018-10-03T10:13:55.856Z,3884
2018-10-03T10:15:05.624Z,3708
2018-10-03T10:16:15.393Z,3588
2018-10-03T10:17:25.420Z,3672
2018-10-03T10:18:35.458Z,3680
2018-10-03T10:19:44.684Z,3688
2018-10-03T10:20:55.145Z,3692
2018-10-03T10:22:04.674Z,3720
2018-10-03T10:23:14.704Z,3732
2018-10-03T10:24:24.743Z,3752
2018-10-03T10:25:34.521Z,3776
2018-10-03T10:26:44.601Z,3776
2018-10-03T10:27:54.362Z,3772
2018-10-03T10:29:04.124Z,3800
2018-10-03T10:30:14.158Z,3796
2018-10-03T10:31:24.194Z,3796
2018-10-03T10:32:34.568Z,3804
2018-10-03T10:33:44.715Z,3812
2018-10-03T10:34:54.748Z,3824
2018-10-03T10:36:04.320Z,3844
2018-10-03T10:37:14.087Z,3864
2018-10-03T10:38:23.911Z,3908
2018-10-03T10:39:33.959Z,3928
2018-10-03T10:40:44.582Z,3952
2018-10-03T10:41:54.404Z,3984
2018-10-03T10:43:03.906Z,4052
2018-10-03T10:44:13.984Z,4084
2018-10-03T10:45:24.017Z,4212
2018-10-03T10:46:33.608Z,4352
2018-10-03T10:47:43.572Z,4504
2018-10-03T10:48:53.073Z,5344
2018-10-03T10:50:02.645Z,20032
2018-10-03T10:51:12.458Z,38176
2018-10-03T10:52:22.228Z,37088
2018-10-03T10:53:32.265Z,37984
2018-10-03T10:54:42.031Z,28544
2018-10-03T10:55:52.115Z,14340
2018-10-03T10:57:01.877Z,38784
2018-10-03T10:58:11.644Z,36256
2018-10-03T10:59:21.682Z,12616
2018-10-03T11:00:31.459Z,41216
2018-10-03T11:01:41.551Z,30688
2018-10-03T11:02:51.592Z,39200
2018-10-03T11:04:01.626Z,40448
2018-10-03T11:05:11.132Z,39136
2018-10-03T11:06:21.575Z,38464
2018-10-03T11:07:31.849Z,37696
2018-10-03T11:08:41.622Z,37536
2018-10-03T11:09:51.397Z,8756
2018-10-03T11:11:01.171Z,14220
2018-10-03T11:12:10.667Z,23872
2018-10-03T11:13:20.494Z,40160
2018-10-03T11:14:30.531Z,39264
2018-10-03T11:15:40.988Z,39168
2018-10-03T11:16:51.100Z,38400
2018-10-03T11:18:01.001Z,39648
2018-10-03T11:19:10.867Z,40416
2018-10-03T11:20:20.104Z,37792
2018-10-03T11:21:29.883Z,35936
2018-10-03T11:22:39.395Z,35104
2018-10-03T11:23:49.732Z,36032
2018-10-03T11:25:01.261Z,34304
2018-10-03T11:26:11.106Z,14648
2018-10-03T11:27:21.146Z,31904
2018-10-03T11:28:30.938Z,27808
2018-10-03T11:29:40.728Z,26976
2018-10-03T11:30:50.821Z,25536
2018-10-03T11:32:01.011Z,27200
2018-10-03T11:33:10.656Z,25440
2018-10-03T11:34:20.709Z,24672
2018-10-03T11:35:30.753Z,24288
2018-10-03T11:36:40.574Z,24640
2018-10-03T11:37:50.349Z,25024
2018-10-03T11:38:59.318Z,24832
2018-10-03T11:40:08.858Z,25504
2018-10-03T11:41:18.638Z,26528
2018-10-03T11:42:28.467Z,26976
2018-10-03T11:43:38.243Z,32480
2018-10-03T11:44:48.046Z,38528
2018-10-03T11:45:57.832Z,37280
2018-10-03T11:47:07.614Z,31808
2018-10-03T11:48:17.716Z,27040
2018-10-03T11:49:27.789Z,23968
2018-10-03T11:50:37.675Z,22432
2018-10-03T11:51:47.906Z,22240
2018-10-03T11:52:57.961Z,21984
2018-10-03T11:54:08.070Z,21504
2018-10-03T11:55:17.851Z,21440
2018-10-03T11:56:27.368Z,21216
2018-10-03T11:57:37.412Z,20608
2018-10-03T11:58:47.460Z,20640
2018-10-03T11:59:57.023Z,20992
2018-10-03T12:01:06.807Z,20896
2018-10-03T12:02:16.864Z,20832
2018-10-03T12:03:27.248Z,20800
2018-10-03T12:04:37.421Z,20768
2018-10-03T12:05:47.256Z,20800
2018-10-03T12:06:57.304Z,20704
2018-10-03T12:08:07.364Z,20352
2018-10-03T12:09:16.681Z,20352
2018-10-03T12:10:26.229Z,20448
2018-10-03T12:11:36.324Z,20416
2018-10-03T12:12:46.373Z,20608
2018-10-03T12:13:56.353Z,20800
2018-10-03T12:15:06.140Z,20992
2018-10-03T12:16:16.186Z,21056
2018-10-03T12:17:26.019Z,21344
2018-10-03T12:18:35.796Z,21344
2018-10-03T12:19:45.632Z,21216
2018-10-03T12:20:55.143Z,21344
2018-10-03T12:22:04.931Z,21440
2018-10-03T12:23:15.080Z,21376
2018-10-03T12:24:24.593Z,21216
2018-10-03T12:25:34.106Z,21504
2018-10-03T12:26:43.618Z,21600
2018-10-03T12:27:53.669Z,16544
2018-10-03T12:29:04.000Z,21632
2018-10-03T12:30:13.521Z,21920
2018-10-03T12:31:23.573Z,21920
2018-10-03T12:32:33.083Z,21760
2018-10-03T12:33:42.729Z,21792
2018-10-03T12:34:52.929Z,22240
2018-10-03T12:36:02.981Z,21984
2018-10-03T12:37:13.030Z,22176
2018-10-03T12:38:22.541Z,21984
2018-10-03T12:39:32.599Z,22432
2018-10-03T12:40:42.703Z,21888
2018-10-03T12:41:52.480Z,21056
2018-10-03T12:43:02.532Z,18624
2018-10-03T12:44:12.044Z,7436
2018-10-03T12:45:22.293Z,7956
2018-10-03T12:46:32.390Z,4404
2018-10-03T12:47:42.436Z,6944
2018-10-03T12:48:52.489Z,5236
2018-10-03T12:50:02.262Z,5584
2018-10-03T12:51:12.040Z,5964
2018-10-03T12:52:21.629Z,5868
2018-10-03T12:53:31.676Z,5312
2018-10-03T12:54:41.962Z,5268
2018-10-03T12:55:52.172Z,5620
2018-10-03T12:57:01.942Z,8468
2018-10-03T12:58:11.768Z,6480
2018-10-03T12:59:21.540Z,8760
2018-10-03T13:00:31.319Z,6800
2018-10-03T13:01:41.370Z,6268
2018-10-03T13:02:50.873Z,5896
2018-10-03T13:04:00.970Z,5196
2018-10-03T13:05:10.484Z,5344
2018-10-03T13:06:20.522Z,5060
2018-10-03T13:07:30.563Z,4464
2018-10-03T13:08:40.607Z,4276
2018-10-03T13:09:50.378Z,4616
2018-10-03T13:10:59.882Z,4392
2018-10-03T13:12:09.122Z,4956
2018-10-03T13:13:18.907Z,5208
2018-10-03T13:14:28.956Z,5016
2018-10-03T13:15:38.461Z,5196
2018-10-03T13:16:48.501Z,5048
2018-10-03T13:17:58.271Z,5296
2018-10-03T13:19:08.048Z,4896
2018-10-03T13:20:18.085Z,4320
2018-10-03T13:21:27.868Z,4184
2018-10-03T13:22:36.837Z,4008
2018-10-03T13:23:46.608Z,4016
2018-10-03T13:24:56.376Z,4464
2018-10-03T13:26:06.162Z,4852
2018-10-03T13:27:16.204Z,15448
2018-10-03T13:28:25.976Z,6824
2018-10-03T13:29:36.018Z,7140
2018-10-03T13:30:46.442Z,6940
2018-10-03T13:31:56.251Z,6900
2018-10-03T13:33:06.077Z,5588
2018-10-03T13:34:15.844Z,6292
2018-10-03T13:35:25.619Z,6408
2018-10-03T13:36:35.654Z,5340
2018-10-03T13:37:45.426Z,4664
2018-10-03T13:38:55.252Z,4692
2018-10-03T13:40:05.019Z,5904
2018-10-03T13:41:14.551Z,4432
2018-10-03T13:42:24.658Z,4296
2018-10-03T13:43:34.752Z,5204
2018-10-03T13:44:44.571Z,3728
2018-10-03T13:45:54.611Z,10064
2018-10-03T13:47:04.122Z,8948
2018-10-03T13:48:13.889Z,6792
2018-10-03T13:49:23.671Z,8448
2018-10-03T13:50:33.775Z,12876
2018-10-03T13:51:43.559Z,10812
2018-10-03T13:52:53.325Z,5120
2018-10-03T13:54:02.827Z,4404
2018-10-03T13:55:12.624Z,5416
2018-10-03T13:56:22.172Z,4464
2018-10-03T13:57:31.949Z,11872
2018-10-03T13:58:41.723Z,25120
2018-10-03T13:59:51.224Z,18240
2018-10-03T14:01:01.258Z,13184
2018-10-03T14:02:10.804Z,5840
2018-10-03T14:03:20.570Z,5600
2018-10-03T14:04:30.610Z,4548
2018-10-03T14:05:40.646Z,3872
2018-10-03T14:06:50.676Z,3732
2018-10-03T14:08:00.492Z,4192
2018-10-03T14:09:10.266Z,4572
2018-10-03T14:10:20.030Z,4812
2018-10-03T14:11:30.062Z,4868
2018-10-03T14:12:39.828Z,10024
2018-10-03T14:13:49.921Z,7732
2018-10-03T14:14:59.690Z,6604
2018-10-03T14:16:09.190Z,6712
2018-10-03T14:17:19.218Z,7036
2018-10-03T14:18:29.311Z,7204
2018-10-03T14:19:38.920Z,7188
2018-10-03T14:20:48.956Z,7684
2018-10-03T14:21:59.007Z,7836
2018-10-03T14:23:09.047Z,7260
2018-10-03T14:24:18.897Z,6972
2018-10-03T14:25:29.078Z,7296
2018-10-03T14:26:39.157Z,7192
2018-10-03T14:27:48.921Z,7036
2018-10-03T14:28:58.682Z,6868
2018-10-03T14:30:08.779Z,22400
2018-10-03T14:31:18.840Z,18464
2018-10-03T14:32:28.606Z,12232
2018-10-03T14:33:38.473Z,13004
2018-10-03T14:34:48.509Z,13808
2018-10-03T14:35:58.006Z,6132
2018-10-03T14:37:08.095Z,7348
2018-10-03T14:38:18.142Z,9108
2018-10-03T14:39:28.184Z,7348
2018-10-03T14:40:37.422Z,13572
2018-10-03T14:41:47.232Z,14592
2018-10-03T14:42:56.777Z,18176
2018-10-03T14:44:06.302Z,17248
2018-10-03T14:45:16.073Z,19136
2018-10-03T14:46:25.856Z,15200
2018-10-03T14:47:35.622Z,6800
2018-10-03T14:48:45.438Z,7328
2018-10-03T14:49:55.210Z,6348
2018-10-03T14:51:05.245Z,19744
2018-10-03T14:52:15.769Z,20320
2018-10-03T14:53:25.991Z,6400
2018-10-03T14:54:35.816Z,22080
2018-10-03T14:55:45.855Z,6308
2018-10-03T14:56:55.628Z,7360
2018-10-03T14:58:05.668Z,4948
2018-10-03T14:59:15.439Z,4656
2018-10-03T15:00:25.483Z,5340
2018-10-03T15:01:35.403Z,4160
2018-10-03T15:02:45.356Z,4256
2018-10-03T15:03:55.398Z,5288
2018-10-03T15:05:04.893Z,35808
2018-10-03T15:06:14.709Z,34784
2018-10-03T15:07:24.480Z,32704
2018-10-03T15:08:34.516Z,30560
2018-10-03T15:09:44.015Z,31456
2018-10-03T15:10:54.047Z,32608
2018-10-03T15:12:03.869Z,33664
2018-10-03T15:13:13.905Z,32384
2018-10-03T15:14:23.671Z,4400
2018-10-03T15:15:32.901Z,32992
2018-10-03T15:16:42.673Z,12924
2018-10-03T15:17:52.720Z,3780
2018-10-03T15:19:02.491Z,3520
2018-10-03T15:20:12.269Z,30016
2018-10-03T15:21:22.316Z,29632
2018-10-03T15:22:32.085Z,4028
2018-10-03T15:23:41.635Z,3536
2018-10-03T15:24:51.679Z,3056
2018-10-03T15:26:01.197Z,24224
2018-10-03T15:27:11.246Z,14912
2018-10-03T15:28:21.291Z,5876
2018-10-03T15:29:31.392Z,6632
2018-10-03T15:30:41.208Z,6348
2018-10-03T15:31:51.247Z,7396
2018-10-03T15:33:01.287Z,3844
2018-10-03T15:34:11.071Z,4252
2018-10-03T15:35:20.688Z,2536
2018-10-03T15:36:30.564Z,2416
2018-10-03T15:37:40.065Z,2352
2018-10-03T15:38:50.104Z,2272
2018-10-03T15:39:59.870Z,2300
2018-10-03T15:41:09.640Z,2224
2018-10-03T15:42:20.345Z,2192
2018-10-03T15:43:30.474Z,2264
2018-10-03T15:44:40.507Z,2264
2018-10-03T15:45:50.001Z,3896
2018-10-03T15:47:00.042Z,3344
2018-10-03T15:48:10.005Z,4468
2018-10-03T15:49:20.205Z,3624
2018-10-03T15:50:29.972Z,2552
2018-10-03T15:51:39.509Z,2528
2018-10-03T15:52:49.275Z,2168
2018-10-03T15:53:58.773Z,2284
2018-10-03T15:55:09.351Z,2264
2018-10-03T15:56:19.482Z,2264